createdAt,value
2018-05-06T00:00:39.203Z,15.09
2018-05-06T00:01:39.394Z,14.96
2018-05-06T00:02:39.577Z,15.03
2018-05-06T00:03:39.762Z,14.97
2018-05-06T00:04:39.953Z,14.99
2018-05-06T00:05:40.127Z,15.02
2018-05-06T00:06:40.323Z,15.03
2018-05-06T00:07:40.529Z,15.07
2018-05-06T00:08:40.726Z,14.96
2018-05-06T00:09:40.923Z,14.89
2018-05-06T00:10:41.225Z,14.94
2018-05-06T00:11:41.309Z,15.02
2018-05-06T00:12:41.500Z,14.88
2018-05-06T00:13:41.694Z,14.81
2018-05-06T00:14:41.876Z,14.73
2018-05-06T00:15:42.073Z,14.66
2018-05-06T00:16:42.292Z,14.77
2018-05-06T00:17:42.478Z,14.72
2018-05-06T00:18:42.673Z,14.79
2018-05-06T00:19:42.858Z,14.81
2018-05-06T00:20:43.056Z,14.78
2018-05-06T00:21:43.255Z,14.78
2018-05-06T00:22:43.440Z,14.63
2018-05-06T00:23:43.625Z,14.69
2018-05-06T00:24:43.819Z,14.58
2018-05-06T00:25:44.015Z,14.65
2018-05-06T00:26:44.197Z,14.62
2018-05-06T00:27:44.376Z,14.63
2018-05-06T00:28:44.567Z,14.59
2018-05-06T00:29:44.755Z,14.59
2018-05-06T00:30:44.946Z,14.59
2018-05-06T00:31:45.125Z,14.63
2018-05-06T00:32:45.318Z,14.65
2018-05-06T00:33:45.516Z,14.54
2018-05-06T00:34:45.697Z,14.51
2018-05-06T00:35:45.877Z,14.54
2018-05-06T00:36:46.059Z,14.37
2018-05-06T00:37:46.241Z,14.36
2018-05-06T00:38:46.420Z,14.40
2018-05-06T00:39:46.598Z,14.32
2018-05-06T00:40:46.778Z,14.23
2018-05-06T00:41:46.966Z,14.33
2018-05-06T00:42:47.154Z,14.35
2018-05-06T00:43:47.333Z,14.28
2018-05-06T00:44:47.513Z,14.18
2018-05-06T00:45:47.693Z,14.25
2018-05-06T00:46:47.874Z,14.23
2018-05-06T00:47:48.052Z,14.29
2018-05-06T00:48:48.243Z,14.28
2018-05-06T00:49:48.424Z,14.37
2018-05-06T00:50:48.610Z,14.26
2018-05-06T00:51:48.798Z,14.23
2018-05-06T00:52:48.986Z,14.30
2018-05-06T00:53:49.183Z,14.33
2018-05-06T00:54:49.362Z,14.35
2018-05-06T00:55:49.540Z,14.32
2018-05-06T00:56:49.741Z,14.22
2018-05-06T00:57:49.929Z,14.20
2018-05-06T00:58:50.120Z,14.26
2018-05-06T00:59:50.300Z,14.26
2018-05-06T01:00:50.484Z,14.36
2018-05-06T01:01:50.673Z,14.23
2018-05-06T01:02:50.857Z,14.37
2018-05-06T01:03:51.041Z,14.37
2018-05-06T01:04:51.222Z,14.40
2018-05-06T01:05:51.422Z,14.25
2018-05-06T01:06:51.597Z,14.18
2018-05-06T01:07:51.777Z,14.32
2018-05-06T01:08:51.986Z,14.20
2018-05-06T01:09:52.168Z,14.22
2018-05-06T01:10:52.344Z,14.05
2018-05-06T01:11:52.533Z,14.08
2018-05-06T01:12:52.718Z,14.10
2018-05-06T01:13:52.896Z,14.11
2018-05-06T01:14:53.106Z,14.05
2018-05-06T01:15:53.289Z,14.03
2018-05-06T01:16:53.477Z,14.12
2018-05-06T01:17:53.682Z,14.03
2018-05-06T01:18:53.862Z,14.04
2018-05-06T01:19:54.049Z,14.07
2018-05-06T01:20:54.234Z,14.05
2018-05-06T01:21:54.419Z,13.99
2018-05-06T01:22:54.605Z,13.93
2018-05-06T01:23:54.794Z,13.92
2018-05-06T01:24:54.979Z,13.95
2018-05-06T01:25:55.170Z,13.79
2018-05-06T01:26:55.365Z,13.77
2018-05-06T01:27:55.551Z,13.67
2018-05-06T01:28:55.740Z,13.60
2018-05-06T01:29:55.919Z,13.57
2018-05-06T01:30:56.103Z,13.50
2018-05-06T01:31:56.295Z,13.44
2018-05-06T01:32:56.483Z,13.35
2018-05-06T01:33:56.674Z,13.35
2018-05-06T01:34:56.849Z,13.31
2018-05-06T01:35:57.031Z,13.27
2018-05-06T01:36:57.219Z,13.18
2018-05-06T01:37:57.397Z,13.23
2018-05-06T01:38:57.589Z,13.12
2018-05-06T01:39:57.809Z,13.08
2018-05-06T01:40:57.967Z,13.00
2018-05-06T01:41:58.149Z,13.00
2018-05-06T01:42:58.341Z,12.95
2018-05-06T01:43:58.516Z,12.80
2018-05-06T01:44:58.709Z,12.83
2018-05-06T01:45:58.911Z,12.67
2018-05-06T01:46:59.093Z,12.68
2018-05-06T01:47:59.277Z,12.60
2018-05-06T01:48:59.456Z,12.46
2018-05-06T01:49:59.649Z,12.42
2018-05-06T01:50:59.834Z,12.47
2018-05-06T01:52:00.018Z,12.43
2018-05-06T01:53:00.227Z,12.39
2018-05-06T01:54:00.418Z,12.39
2018-05-06T01:55:00.607Z,12.35
2018-05-06T01:56:00.787Z,12.29
2018-05-06T01:57:00.998Z,12.17
2018-05-06T01:58:01.186Z,12.20
2018-05-06T01:59:01.368Z,12.18
2018-05-06T02:00:01.564Z,12.09
2018-05-06T02:01:01.743Z,12.15
2018-05-06T02:02:01.942Z,12.03
2018-05-06T02:03:02.119Z,11.99
2018-05-06T02:04:02.302Z,12.10
2018-05-06T02:05:02.488Z,11.94
2018-05-06T02:06:02.683Z,11.91
2018-05-06T02:07:02.855Z,11.83
2018-05-06T02:08:03.048Z,11.80
2018-05-06T02:09:03.228Z,11.86
2018-05-06T02:10:03.420Z,11.91
2018-05-06T02:11:03.596Z,11.90
2018-05-06T02:12:03.772Z,11.87
2018-05-06T02:13:03.966Z,11.83
2018-05-06T02:14:04.145Z,11.70
2018-05-06T02:15:04.327Z,11.72
2018-05-06T02:16:04.514Z,11.72
2018-05-06T02:17:04.696Z,11.63
2018-05-06T02:18:04.888Z,11.69
2018-05-06T02:19:05.083Z,11.62
2018-05-06T02:20:05.261Z,11.63
2018-05-06T02:21:05.439Z,11.54
2018-05-06T02:22:05.639Z,11.54
2018-05-06T02:23:05.826Z,11.44
2018-05-06T02:24:06.011Z,11.48
2018-05-06T02:25:06.211Z,11.36
2018-05-06T02:26:06.392Z,11.45
2018-05-06T02:27:06.576Z,11.30
2018-05-06T02:28:06.769Z,11.23
2018-05-06T02:29:06.959Z,11.26
2018-05-06T02:30:07.135Z,11.30
2018-05-06T02:31:07.335Z,11.27
2018-05-06T02:32:07.524Z,11.19
2018-05-06T02:33:07.706Z,11.18
2018-05-06T02:34:07.897Z,11.00
2018-05-06T02:35:08.102Z,11.02
2018-05-06T02:36:08.290Z,11.05
2018-05-06T02:37:08.470Z,11.05
2018-05-06T02:38:08.652Z,11.10
2018-05-06T02:39:08.833Z,11.11
2018-05-06T02:40:09.024Z,11.22
2018-05-06T02:41:09.204Z,11.19
2018-05-06T02:42:09.433Z,11.22
2018-05-06T02:43:09.500Z,11.22
2018-05-06T02:44:09.681Z,11.26
2018-05-06T02:45:09.870Z,11.17
2018-05-06T02:46:10.049Z,11.22
2018-05-06T02:47:10.241Z,11.27
2018-05-06T02:48:10.422Z,11.19
2018-05-06T02:49:10.608Z,11.19
2018-05-06T02:50:10.791Z,11.25
2018-05-06T02:51:10.980Z,11.11
2018-05-06T02:52:11.167Z,11.14
2018-05-06T02:53:11.344Z,10.94
2018-05-06T02:54:11.532Z,11.05
2018-05-06T02:55:11.727Z,10.99
2018-05-06T02:56:11.935Z,11.02
2018-05-06T02:57:12.088Z,10.92
2018-05-06T02:58:12.283Z,10.99
2018-05-06T02:59:12.480Z,11.02
2018-05-06T03:00:12.667Z,10.92
2018-05-06T03:01:12.850Z,10.99
2018-05-06T03:02:13.030Z,10.92
2018-05-06T03:03:13.212Z,10.89
2018-05-06T03:04:13.394Z,10.90
2018-05-06T03:05:13.581Z,10.82
2018-05-06T03:06:13.769Z,10.81
2018-05-06T03:07:13.972Z,10.87
2018-05-06T03:08:14.154Z,10.72
2018-05-06T03:09:14.346Z,10.61
2018-05-06T03:10:14.521Z,10.48
2018-05-06T03:11:14.706Z,10.46
2018-05-06T03:12:14.886Z,10.35
2018-05-06T03:13:15.074Z,10.37
2018-05-06T03:14:15.254Z,10.28
2018-05-06T03:15:15.436Z,10.23
2018-05-06T03:16:15.612Z,10.26
2018-05-06T03:17:15.796Z,10.10
2018-05-06T03:18:15.982Z,10.15
2018-05-06T03:19:16.180Z,10.07
2018-05-06T03:20:16.367Z,10.07
2018-05-06T03:21:16.552Z,10.02
2018-05-06T03:22:16.750Z,10.01
2018-05-06T03:23:16.931Z,9.99
2018-05-06T03:24:17.113Z,10.04
2018-05-06T03:25:17.310Z,10.01
2018-05-06T03:26:17.490Z,10.02
2018-05-06T03:27:17.673Z,9.94
2018-05-06T03:28:17.868Z,9.89
2018-05-06T03:29:18.053Z,9.87
2018-05-06T03:30:18.242Z,9.87
2018-05-06T03:31:18.438Z,9.86
2018-05-06T03:32:18.622Z,9.82
2018-05-06T03:33:18.818Z,9.76
2018-05-06T03:34:19.017Z,9.72
2018-05-06T03:35:19.198Z,9.69
2018-05-06T03:36:19.397Z,9.86
2018-05-06T03:37:19.578Z,9.74
2018-05-06T03:38:19.786Z,9.83
2018-05-06T03:39:19.966Z,9.77
2018-05-06T03:40:20.151Z,9.73
2018-05-06T03:41:20.340Z,9.77
2018-05-06T03:42:20.530Z,9.82
2018-05-06T03:43:20.748Z,9.77
2018-05-06T03:44:20.817Z,9.80
2018-05-06T03:45:21.002Z,9.74
2018-05-06T03:46:21.185Z,9.66
2018-05-06T03:47:21.379Z,9.64
2018-05-06T03:48:21.559Z,9.61
2018-05-06T03:49:21.748Z,9.59
2018-05-06T03:50:21.936Z,9.56
2018-05-06T03:51:22.121Z,9.58
2018-05-06T03:52:22.333Z,9.65
2018-05-06T03:53:22.523Z,9.58
2018-05-06T03:54:22.713Z,9.56
2018-05-06T03:55:22.888Z,9.48
2018-05-06T03:56:23.125Z,9.41
2018-05-06T03:57:23.185Z,9.54
2018-05-06T03:58:23.363Z,9.44
2018-05-06T03:59:23.572Z,9.37
2018-05-06T04:00:23.826Z,9.43
2018-05-06T04:01:23.945Z,9.54
2018-05-06T04:02:24.121Z,9.54
2018-05-06T04:03:24.311Z,9.58
2018-05-06T04:04:24.504Z,9.59
2018-05-06T04:05:24.685Z,9.65
2018-05-06T04:06:24.869Z,9.74
2018-05-06T04:07:25.144Z,9.68
2018-05-06T04:08:25.203Z,9.58
2018-05-06T04:09:25.384Z,9.62
2018-05-06T04:10:25.574Z,9.66
2018-05-06T04:11:25.751Z,9.64
2018-05-06T04:12:25.933Z,9.61
2018-05-06T04:13:26.130Z,9.61
2018-05-06T04:14:26.323Z,9.55
2018-05-06T04:15:26.519Z,9.55
2018-05-06T04:16:26.705Z,9.56
2018-05-06T04:17:26.892Z,9.58
2018-05-06T04:18:27.077Z,9.65
2018-05-06T04:19:27.264Z,9.73
2018-05-06T04:20:27.469Z,9.77
2018-05-06T04:21:27.642Z,9.74
2018-05-06T04:22:27.827Z,9.73
2018-05-06T04:23:28.028Z,9.74
2018-05-06T04:24:28.225Z,9.74
2018-05-06T04:25:28.403Z,9.73
2018-05-06T04:26:28.605Z,9.73
2018-05-06T04:27:28.778Z,9.86
2018-05-06T04:28:28.982Z,9.92
2018-05-06T04:29:29.161Z,9.91
2018-05-06T04:30:29.349Z,9.97
2018-05-06T04:31:29.556Z,9.95
2018-05-06T04:32:31.782Z,10.05
2018-05-06T04:33:31.620Z,9.99
2018-05-06T04:34:31.830Z,9.97
2018-05-06T04:35:31.952Z,10.01
2018-05-06T04:36:30.492Z,10.05
2018-05-06T04:37:30.687Z,10.01
2018-05-06T04:38:30.866Z,10.02
2018-05-06T04:39:31.046Z,10.02
2018-05-06T04:40:31.323Z,10.04
2018-05-06T04:41:31.382Z,10.13
2018-05-06T04:42:31.554Z,10.17
2018-05-06T04:43:31.818Z,10.09
2018-05-06T04:44:31.869Z,10.19
2018-05-06T04:45:32.070Z,10.26
2018-05-06T04:46:32.254Z,10.30
2018-05-06T04:47:32.441Z,10.34
2018-05-06T04:48:32.627Z,10.41
2018-05-06T04:49:32.814Z,10.46
2018-05-06T04:50:33.103Z,10.46
2018-05-06T04:51:33.120Z,10.57
2018-05-06T04:52:33.316Z,10.56
2018-05-06T04:53:33.488Z,10.60
2018-05-06T04:54:33.685Z,10.74
2018-05-06T04:55:33.875Z,10.72
2018-05-06T04:56:34.058Z,10.81
2018-05-06T04:57:34.258Z,10.86
2018-05-06T04:58:34.456Z,10.87
2018-05-06T04:59:34.639Z,10.87
2018-05-06T05:00:34.960Z,10.93
2018-05-06T05:01:35.026Z,10.97
2018-05-06T05:02:35.212Z,10.97
2018-05-06T05:03:35.396Z,11.12
2018-05-06T05:04:35.580Z,11.15
2018-05-06T05:05:35.785Z,11.26
2018-05-06T05:06:35.988Z,11.41
2018-05-06T05:07:36.167Z,11.57
2018-05-06T05:08:36.368Z,11.51
2018-05-06T05:09:36.580Z,11.57
2018-05-06T05:10:36.764Z,11.66
2018-05-06T05:11:36.949Z,11.77
2018-05-06T05:12:37.153Z,12.00
2018-05-06T05:13:37.338Z,12.02
2018-05-06T05:14:37.536Z,12.06
2018-05-06T05:15:37.744Z,12.18
2018-05-06T05:16:37.930Z,12.27
2018-05-06T05:17:38.120Z,12.36
2018-05-06T05:18:38.307Z,12.50
2018-05-06T05:19:38.492Z,12.47
2018-05-06T05:20:38.668Z,12.57
2018-05-06T05:21:38.851Z,12.78
2018-05-06T05:22:39.031Z,12.87
2018-05-06T05:23:39.221Z,13.05
2018-05-06T05:24:39.407Z,13.00
2018-05-06T05:25:39.612Z,13.22
2018-05-06T05:26:39.787Z,13.28
2018-05-06T05:27:39.964Z,13.38
2018-05-06T05:28:40.156Z,13.44
2018-05-06T05:29:40.364Z,13.59
2018-05-06T05:30:40.556Z,13.71
2018-05-06T05:31:40.729Z,13.68
2018-05-06T05:32:40.905Z,13.86
2018-05-06T05:33:41.095Z,13.83
2018-05-06T05:34:41.276Z,13.83
2018-05-06T05:35:41.459Z,13.99
2018-05-06T05:36:41.642Z,14.11
2018-05-06T05:37:41.825Z,14.17
2018-05-06T05:38:42.014Z,14.23
2018-05-06T05:39:42.203Z,14.33
2018-05-06T05:40:42.385Z,14.45
2018-05-06T05:41:42.562Z,14.45
2018-05-06T05:42:42.752Z,14.54
2018-05-06T05:43:42.952Z,14.59
2018-05-06T05:44:43.136Z,14.72
2018-05-06T05:45:43.328Z,14.82
2018-05-06T05:46:43.511Z,14.65
2018-05-06T05:47:43.761Z,14.72
2018-05-06T05:48:43.882Z,14.73
2018-05-06T05:49:44.074Z,14.82
2018-05-06T05:50:44.259Z,14.84
2018-05-06T05:51:44.439Z,14.94
2018-05-06T05:52:44.643Z,15.06
2018-05-06T05:53:44.820Z,15.21
2018-05-06T05:54:45.008Z,15.36
2018-05-06T05:55:45.197Z,15.43
2018-05-06T05:56:45.373Z,15.65
2018-05-06T05:57:45.551Z,15.82
2018-05-06T05:58:45.747Z,16.00
2018-05-06T05:59:45.941Z,16.31
2018-05-06T06:00:46.119Z,16.50
2018-05-06T06:01:46.307Z,16.97
2018-05-06T06:02:46.508Z,17.33
2018-05-06T06:03:46.703Z,17.71
2018-05-06T06:04:46.907Z,17.87
2018-05-06T06:05:47.094Z,18.33
2018-05-06T06:06:47.285Z,18.95
2018-05-06T06:07:47.477Z,19.44
2018-05-06T06:08:47.723Z,19.77
2018-05-06T06:09:47.985Z,19.96
2018-05-06T06:10:47.889Z,20.69
2018-05-06T06:11:48.076Z,21.14
2018-05-06T06:12:48.278Z,21.48
2018-05-06T06:13:48.473Z,21.96
2018-05-06T06:14:48.669Z,22.47
2018-05-06T06:15:48.861Z,22.93
2018-05-06T06:16:49.074Z,23.21
2018-05-06T06:17:49.262Z,23.51
2018-05-06T06:18:49.453Z,23.88
2018-05-06T06:19:49.650Z,24.33
2018-05-06T06:20:49.835Z,24.68
2018-05-06T06:21:50.097Z,25.13
2018-05-06T06:22:50.158Z,25.25
2018-05-06T06:23:50.353Z,25.14
2018-05-06T06:24:50.733Z,25.63
2018-05-06T06:25:50.689Z,25.96
2018-05-06T06:26:50.883Z,26.44
2018-05-06T06:27:51.096Z,26.75
2018-05-06T06:28:51.290Z,26.97
2018-05-06T06:29:51.484Z,27.14
2018-05-06T06:30:51.688Z,27.26
2018-05-06T06:31:51.873Z,27.54
2018-05-06T06:32:52.088Z,27.59
2018-05-06T06:33:52.257Z,27.68
2018-05-06T06:34:52.445Z,27.65
2018-05-06T06:35:52.646Z,27.48
2018-05-06T06:36:52.826Z,27.54
2018-05-06T06:37:53.171Z,27.82
2018-05-06T06:38:53.248Z,27.90
2018-05-06T06:39:53.443Z,28.15
2018-05-06T06:40:53.631Z,28.25
2018-05-06T06:41:53.837Z,28.59
2018-05-06T06:42:54.043Z,28.84
2018-05-06T06:43:54.237Z,29.12
2018-05-06T06:44:54.434Z,28.97
2018-05-06T06:45:54.636Z,29.04
2018-05-06T06:46:54.827Z,29.08
2018-05-06T06:47:55.063Z,29.05
2018-05-06T06:48:55.271Z,28.82
2018-05-06T06:49:55.433Z,28.82
2018-05-06T06:50:55.616Z,28.94
2018-05-06T06:51:55.814Z,29.26
2018-05-06T06:52:56.008Z,29.10
2018-05-06T06:53:56.226Z,29.60
2018-05-06T06:54:56.403Z,29.71
2018-05-06T06:55:56.595Z,29.54
2018-05-06T06:56:56.783Z,29.72
2018-05-06T06:57:56.993Z,30.34
2018-05-06T06:58:57.212Z,30.83
2018-05-06T06:59:57.441Z,31.09
2018-05-06T07:00:57.756Z,31.42
2018-05-06T07:01:57.830Z,31.70
2018-05-06T07:02:58.169Z,31.61
2018-05-06T07:03:58.231Z,31.94
2018-05-06T07:04:58.429Z,32.63
2018-05-06T07:05:58.640Z,33.40
2018-05-06T07:06:58.824Z,33.80
2018-05-06T07:07:59.013Z,33.98
2018-05-06T07:08:59.214Z,33.98
2018-05-06T07:09:59.413Z,34.20
2018-05-06T07:10:59.743Z,34.39
2018-05-06T07:11:59.802Z,34.54
2018-05-06T07:13:00.037Z,35.11
2018-05-06T07:14:00.232Z,35.60
2018-05-06T07:15:00.435Z,35.80
2018-05-06T07:16:00.626Z,35.34
2018-05-06T07:17:00.830Z,34.20
2018-05-06T07:18:01.034Z,34.67
2018-05-06T07:19:01.242Z,34.77
2018-05-06T07:20:01.436Z,35.15
2018-05-06T07:21:01.851Z,35.00
2018-05-06T07:22:01.818Z,34.93
2018-05-06T07:23:02.011Z,35.17
2018-05-06T07:24:02.208Z,35.15
2018-05-06T07:25:02.408Z,35.26
2018-05-06T07:26:02.877Z,34.35
2018-05-06T07:27:02.831Z,34.95
2018-05-06T07:28:03.014Z,34.96
2018-05-06T07:29:03.361Z,34.14
2018-05-06T07:30:04.087Z,34.70
2018-05-06T07:31:03.539Z,34.97
2018-05-06T07:32:03.742Z,34.58
2018-05-06T07:33:03.956Z,34.81
2018-05-06T07:34:04.254Z,34.40
2018-05-06T07:35:04.421Z,34.78
2018-05-06T07:36:04.652Z,34.95
2018-05-06T07:37:04.870Z,35.10
2018-05-06T07:38:05.104Z,35.10
2018-05-06T07:39:05.294Z,35.31
2018-05-06T07:40:05.497Z,35.93
2018-05-06T07:41:05.695Z,35.71
2018-05-06T07:42:05.889Z,35.92
2018-05-06T07:43:06.107Z,35.79
2018-05-06T07:44:06.315Z,36.18
2018-05-06T07:45:06.581Z,36.59
2018-05-06T07:46:06.619Z,36.73
2018-05-06T07:47:06.827Z,36.39
2018-05-06T07:48:07.026Z,36.14
2018-05-06T07:49:07.241Z,35.73
2018-05-06T07:50:07.471Z,35.92
2018-05-06T07:51:07.646Z,35.76
2018-05-06T07:52:08.613Z,35.51
2018-05-06T07:53:08.639Z,36.08
2018-05-06T07:54:08.202Z,36.59
2018-05-06T07:55:08.401Z,36.91
2018-05-06T07:56:08.605Z,37.14
2018-05-06T07:57:08.794Z,37.70
2018-05-06T07:58:09.023Z,37.83
2018-05-06T07:59:09.220Z,37.68
2018-05-06T08:00:10.172Z,37.84
2018-05-06T08:01:10.013Z,37.86
2018-05-06T08:02:09.953Z,37.65
2018-05-06T08:03:10.148Z,37.32
2018-05-06T08:04:10.680Z,37.14
2018-05-06T08:05:10.308Z,37.08
2018-05-06T08:06:10.512Z,37.44
2018-05-06T08:07:10.752Z,37.89
2018-05-06T08:08:10.968Z,37.40
2018-05-06T08:09:11.381Z,37.28
2018-05-06T08:10:11.344Z,37.64
2018-05-06T08:11:11.489Z,38.39
2018-05-06T08:12:11.708Z,38.67
2018-05-06T08:13:11.922Z,38.50
2018-05-06T08:14:12.448Z,37.67
2018-05-06T08:15:13.215Z,37.44
2018-05-06T08:16:12.651Z,37.89
2018-05-06T08:17:12.726Z,38.12
2018-05-06T08:18:12.923Z,38.31
2018-05-06T08:19:13.125Z,38.40
2018-05-06T08:20:13.879Z,38.33
2018-05-06T08:21:13.450Z,38.09
2018-05-06T08:22:13.697Z,38.11
2018-05-06T08:23:14.382Z,38.20
2018-05-06T08:24:13.954Z,37.55
2018-05-06T08:25:14.170Z,37.68
2018-05-06T08:26:14.404Z,37.64
2018-05-06T08:27:14.579Z,37.47
2018-05-06T08:28:14.793Z,37.58
2018-05-06T08:29:14.987Z,37.84
2018-05-06T08:30:15.196Z,38.28
2018-05-06T08:31:15.497Z,38.86
2018-05-06T08:32:15.627Z,39.03
2018-05-06T08:33:15.840Z,39.67
2018-05-06T08:34:16.059Z,40.02
2018-05-06T08:35:16.258Z,39.90
2018-05-06T08:36:16.475Z,39.92
2018-05-06T08:37:16.702Z,39.75
2018-05-06T08:38:17.335Z,39.77
2018-05-06T08:39:17.126Z,40.04
2018-05-06T08:40:17.325Z,40.53
2018-05-06T08:41:17.537Z,40.59
2018-05-06T08:42:17.747Z,39.46
2018-05-06T08:43:17.946Z,39.59
2018-05-06T08:44:18.144Z,39.94
2018-05-06T08:45:18.407Z,39.96
2018-05-06T08:46:18.595Z,40.50
2018-05-06T08:47:18.805Z,40.68
2018-05-06T08:48:19.016Z,41.18
2018-05-06T08:49:19.457Z,40.73
2018-05-06T08:50:19.357Z,40.77
2018-05-06T08:51:19.566Z,41.02
2018-05-06T08:52:19.917Z,41.07
2018-05-06T08:53:20.394Z,40.24
2018-05-06T08:54:20.214Z,40.43
2018-05-06T08:55:20.430Z,40.00
2018-05-06T08:56:21.152Z,40.00
2018-05-06T08:57:21.810Z,39.53
2018-05-06T08:58:21.073Z,39.34
2018-05-06T08:59:21.186Z,39.55
2018-05-06T09:00:21.383Z,39.68
2018-05-06T09:01:21.617Z,39.46
2018-05-06T09:02:21.732Z,39.41
2018-05-06T09:03:21.956Z,39.24
2018-05-06T09:04:22.163Z,39.29
2018-05-06T09:05:22.797Z,39.53
2018-05-06T09:06:22.849Z,39.02
2018-05-06T09:07:22.691Z,39.24
2018-05-06T09:08:23.077Z,39.78
2018-05-06T09:09:23.027Z,40.15
2018-05-06T09:10:23.253Z,40.05
2018-05-06T09:11:23.491Z,39.33
2018-05-06T09:12:23.781Z,38.28
2018-05-06T09:13:24.095Z,38.73
2018-05-06T09:14:24.108Z,38.80
2018-05-06T09:15:24.411Z,38.68
2018-05-06T09:16:24.481Z,38.49
2018-05-06T09:17:24.870Z,38.60
2018-05-06T09:18:24.876Z,38.96
2018-05-06T09:19:25.094Z,38.33
2018-05-06T09:20:25.469Z,38.38
2018-05-06T09:21:26.924Z,39.11
2018-05-06T09:22:25.695Z,38.95
2018-05-06T09:23:25.971Z,39.26
2018-05-06T09:24:26.036Z,39.80
2018-05-06T09:25:26.170Z,39.62
2018-05-06T09:26:26.524Z,39.74
2018-05-06T09:27:27.005Z,39.41
2018-05-06T09:28:26.721Z,39.03
2018-05-06T09:29:26.917Z,38.54
2018-05-06T09:30:27.122Z,38.50
2018-05-06T09:31:27.334Z,37.67
2018-05-06T09:32:27.556Z,37.39
2018-05-06T09:33:27.755Z,37.93
2018-05-06T09:34:27.959Z,38.06
2018-05-06T09:35:28.159Z,37.64
2018-05-06T09:36:28.421Z,38.17
2018-05-06T09:37:28.881Z,38.40
2018-05-06T09:38:28.984Z,37.82
2018-05-06T09:39:28.968Z,37.90
2018-05-06T09:40:29.182Z,37.56
2018-05-06T09:41:29.378Z,37.40
2018-05-06T09:42:29.590Z,37.58
2018-05-06T09:43:30.063Z,37.59
2018-05-06T09:44:30.177Z,37.65
2018-05-06T09:45:30.188Z,37.74
2018-05-06T09:46:30.985Z,37.32
2018-05-06T09:47:30.694Z,36.92
2018-05-06T09:48:30.693Z,36.46
2018-05-06T09:49:30.901Z,36.18
2018-05-06T09:50:31.087Z,36.33
2018-05-06T09:51:31.290Z,36.42
2018-05-06T09:52:31.503Z,35.27
2018-05-06T09:53:31.728Z,36.18
2018-05-06T09:54:31.926Z,36.67
2018-05-06T09:55:32.124Z,36.58
2018-05-06T09:56:32.316Z,37.37
2018-05-06T09:57:32.550Z,37.67
2018-05-06T09:58:32.783Z,38.14
2018-05-06T09:59:33.435Z,38.01
2018-05-06T10:00:33.156Z,38.34
2018-05-06T10:01:34.061Z,37.18
2018-05-06T10:02:33.583Z,36.81
2018-05-06T10:03:33.664Z,37.07
2018-05-06T10:04:34.057Z,37.23
2018-05-06T10:05:33.999Z,37.56
2018-05-06T10:06:34.283Z,37.36
2018-05-06T10:07:34.366Z,36.92
2018-05-06T10:08:34.721Z,36.80
2018-05-06T10:09:34.785Z,36.27
2018-05-06T10:10:34.979Z,35.93
2018-05-06T10:11:35.176Z,36.01
2018-05-06T10:12:35.380Z,35.39
2018-05-06T10:13:35.643Z,35.68
2018-05-06T10:14:35.711Z,36.05
2018-05-06T10:15:35.951Z,36.24
2018-05-06T10:16:36.037Z,35.56
2018-05-06T10:17:36.231Z,35.24
2018-05-06T10:18:36.438Z,35.15
2018-05-06T10:19:36.625Z,34.95
2018-05-06T10:20:36.875Z,34.23
2018-05-06T10:21:37.021Z,33.86
2018-05-06T10:22:37.116Z,34.10
2018-05-06T10:23:37.319Z,33.74
2018-05-06T10:24:37.512Z,34.05
2018-05-06T10:25:37.718Z,34.48
2018-05-06T10:26:37.909Z,34.38
2018-05-06T10:27:38.097Z,34.47
2018-05-06T10:28:38.297Z,33.98
2018-05-06T10:29:38.566Z,33.02
2018-05-06T10:30:38.714Z,32.43
2018-05-06T10:31:38.913Z,32.21
2018-05-06T10:32:39.092Z,31.87
2018-05-06T10:33:39.379Z,32.00
2018-05-06T10:34:39.568Z,31.96
2018-05-06T10:35:39.881Z,31.94
2018-05-06T10:36:39.820Z,32.00
2018-05-06T10:37:40.036Z,31.61
2018-05-06T10:38:41.614Z,31.61
2018-05-06T10:39:42.281Z,31.56
2018-05-06T10:40:42.342Z,31.33
2018-05-06T10:41:40.726Z,31.17
2018-05-06T10:42:40.943Z,30.80
2018-05-06T10:43:41.226Z,30.78
2018-05-06T10:44:41.297Z,30.47
2018-05-06T10:45:41.502Z,29.79
2018-05-06T10:46:41.730Z,29.41
2018-05-06T10:47:41.923Z,29.26
2018-05-06T10:48:42.104Z,29.01
2018-05-06T10:49:42.297Z,28.82
2018-05-06T10:50:42.501Z,28.52
2018-05-06T10:51:42.693Z,28.51
2018-05-06T10:52:42.899Z,28.72
2018-05-06T10:53:43.599Z,28.75
2018-05-06T10:54:44.976Z,28.62
2018-05-06T10:55:43.436Z,28.93
2018-05-06T10:56:45.287Z,29.13
2018-05-06T10:57:45.542Z,29.08
2018-05-06T10:58:43.995Z,28.91
2018-05-06T10:59:44.179Z,28.84
2018-05-06T11:00:44.393Z,28.94
2018-05-06T11:01:44.617Z,28.98
2018-05-06T11:02:44.683Z,28.52
2018-05-06T11:03:44.873Z,28.39
2018-05-06T11:04:45.076Z,28.47
2018-05-06T11:05:45.262Z,28.22
2018-05-06T11:06:45.456Z,28.42
2018-05-06T11:07:45.656Z,28.26
2018-05-06T11:08:45.843Z,28.12
2018-05-06T11:09:46.037Z,28.02
2018-05-06T11:10:46.245Z,27.98
2018-05-06T11:11:46.464Z,28.02
2018-05-06T11:12:46.544Z,28.11
2018-05-06T11:13:46.730Z,28.23
2018-05-06T11:14:47.206Z,27.98
2018-05-06T11:15:47.341Z,27.32
2018-05-06T11:16:47.475Z,27.26
2018-05-06T11:17:47.455Z,27.22
2018-05-06T11:18:48.030Z,27.25
2018-05-06T11:19:47.998Z,27.26
2018-05-06T11:20:48.228Z,27.47
2018-05-06T11:21:48.325Z,27.54
2018-05-06T11:22:48.545Z,27.55
2018-05-06T11:23:50.360Z,27.60
2018-05-06T11:24:49.163Z,27.58
2018-05-06T11:25:49.522Z,27.47
2018-05-06T11:26:49.159Z,27.52
2018-05-06T11:27:49.329Z,27.52
2018-05-06T11:28:49.523Z,27.75
2018-05-06T11:29:49.741Z,27.87
2018-05-06T11:30:50.021Z,28.11
2018-05-06T11:31:50.091Z,28.30
2018-05-06T11:32:50.280Z,28.11
2018-05-06T11:33:50.515Z,28.20
2018-05-06T11:34:50.581Z,28.11
2018-05-06T11:35:51.822Z,27.92
2018-05-06T11:36:51.021Z,27.58
2018-05-06T11:37:51.112Z,27.44
2018-05-06T11:38:51.314Z,27.48
2018-05-06T11:39:51.508Z,27.35
2018-05-06T11:40:51.719Z,27.32
2018-05-06T11:41:51.908Z,27.29
2018-05-06T11:42:52.226Z,27.26
2018-05-06T11:43:52.417Z,27.42
2018-05-06T11:44:52.472Z,27.44
2018-05-06T11:45:52.663Z,27.51
2018-05-06T11:46:52.867Z,27.51
2018-05-06T11:47:53.060Z,27.52
2018-05-06T11:48:53.257Z,27.42
2018-05-06T11:49:53.458Z,27.54
2018-05-06T11:50:54.050Z,27.47
2018-05-06T11:51:54.256Z,27.52
2018-05-06T11:52:54.363Z,27.77
2018-05-06T11:53:54.902Z,27.63
2018-05-06T11:54:54.662Z,27.60
2018-05-06T11:55:55.226Z,27.49
2018-05-06T11:56:55.554Z,27.37
2018-05-06T11:57:55.525Z,27.29
2018-05-06T11:58:55.855Z,27.14
2018-05-06T11:59:55.293Z,27.03
2018-05-06T12:00:55.481Z,27.02
2018-05-06T12:01:56.021Z,26.93
2018-05-06T12:02:55.830Z,26.85
2018-05-06T12:03:56.042Z,26.73
2018-05-06T12:04:56.411Z,26.88
2018-05-06T12:05:56.830Z,26.83
2018-05-06T12:06:56.607Z,26.83
2018-05-06T12:07:56.796Z,26.68
2018-05-06T12:08:57.074Z,26.60
2018-05-06T12:09:57.179Z,26.66
2018-05-06T12:10:57.327Z,26.70
2018-05-06T12:11:57.533Z,26.71
2018-05-06T12:12:57.996Z,26.80
2018-05-06T12:13:57.948Z,26.90
2018-05-06T12:14:58.167Z,26.84
2018-05-06T12:15:58.446Z,26.85
2018-05-06T12:16:58.651Z,26.84
2018-05-06T12:17:58.730Z,26.97
2018-05-06T12:18:59.022Z,27.11
2018-05-06T12:19:59.215Z,26.99
2018-05-06T12:20:59.269Z,27.08
2018-05-06T12:21:59.557Z,27.22
2018-05-06T12:22:59.659Z,27.15
2018-05-06T12:23:59.930Z,27.14
2018-05-06T12:25:00.126Z,26.59
2018-05-06T12:26:00.273Z,26.31
2018-05-06T12:27:00.355Z,26.18
2018-05-06T12:28:01.435Z,26.22
2018-05-06T12:29:00.758Z,26.03
2018-05-06T12:30:00.951Z,25.95
2018-05-06T12:31:01.145Z,25.66
2018-05-06T12:32:01.349Z,25.33
2018-05-06T12:33:01.536Z,25.13
2018-05-06T12:34:01.721Z,25.25
2018-05-06T12:35:01.920Z,25.32
2018-05-06T12:36:02.119Z,25.18
2018-05-06T12:37:02.329Z,25.23
2018-05-06T12:38:02.528Z,25.08
2018-05-06T12:39:02.725Z,25.22
2018-05-06T12:40:02.921Z,25.21
2018-05-06T12:41:03.127Z,25.28
2018-05-06T12:42:03.311Z,25.40
2018-05-06T12:43:03.491Z,25.50
2018-05-06T12:44:03.751Z,25.55
2018-05-06T12:45:03.808Z,25.77
2018-05-06T12:46:03.997Z,25.81
2018-05-06T12:47:04.477Z,25.63
2018-05-06T12:48:04.293Z,25.51
2018-05-06T12:49:04.479Z,25.55
2018-05-06T12:50:04.668Z,25.65
2018-05-06T12:51:04.859Z,25.62
2018-05-06T12:52:05.056Z,25.51
2018-05-06T12:53:05.238Z,25.16
2018-05-06T12:54:05.421Z,25.06
2018-05-06T12:55:05.607Z,25.04
2018-05-06T12:56:05.802Z,25.07
2018-05-06T12:57:06.183Z,25.10